createdAt,value
2023-02-23T00:02:07.476Z,5.45
2023-02-23T00:04:35.928Z,5.03
2023-02-23T00:07:03.383Z,4.88
2023-02-23T00:09:35.759Z,4.55
2023-02-23T00:12:08.326Z,4.25
2023-02-23T00:14:38.594Z,4.10
2023-02-23T00:17:14.969Z,4.80
2023-02-23T00:19:44.005Z,4.38
2023-02-23T00:22:12.347Z,5.03
2023-02-23T00:24:40.771Z,5.10
2023-02-23T00:27:07.882Z,4.25
2023-02-23T00:29:39.596Z,4.20
2023-02-23T00:32:06.917Z,4.35
2023-02-23T00:34:36.096Z,4.60
2023-02-23T00:37:03.954Z,4.60
2023-02-23T00:39:30.841Z,4.93
2023-02-23T00:42:03.329Z,4.57
2023-02-23T00:44:32.523Z,4.70
2023-02-23T00:47:00.351Z,7.10
2023-02-23T00:49:27.682Z,4.13
2023-02-23T00:51:55.440Z,8.02
2023-02-23T00:54:22.519Z,6.93
2023-02-23T00:56:50.644Z,5.60
2023-02-23T00:59:19.876Z,5.30
2023-02-23T01:01:47.107Z,4.43
2023-02-23T01:04:14.763Z,4.30
2023-02-23T01:06:42.704Z,4.10
2023-02-23T01:09:13.693Z,4.28
2023-02-23T01:11:41.702Z,4.30
2023-02-23T01:14:10.603Z,4.18
2023-02-23T01:16:39.156Z,4.43
2023-02-23T01:19:06.457Z,4.55
2023-02-23T01:21:40.239Z,4.40
2023-02-23T01:26:38.687Z,4.50
2023-02-23T01:29:15.210Z,4.68
2023-02-23T01:31:45.398Z,5.15
2023-02-23T01:34:15.811Z,4.40
2023-02-23T01:36:45.266Z,4.32
2023-02-23T01:39:17.791Z,4.40
2023-02-23T01:41:45.501Z,4.72
2023-02-23T01:44:15.518Z,4.20
2023-02-23T01:46:45.612Z,3.85
2023-02-23T01:49:16.496Z,4.38
2023-02-23T01:51:50.332Z,4.07
2023-02-23T01:54:25.052Z,4.35
2023-02-23T01:56:58.573Z,4.40
2023-02-23T01:59:38.340Z,5.18
2023-02-23T02:02:05.798Z,5.10
2023-02-23T02:04:44.848Z,5.30
2023-02-23T02:07:20.860Z,6.00
2023-02-23T02:10:10.057Z,5.00
2023-02-23T02:12:52.202Z,4.80
2023-02-23T02:15:22.698Z,4.38
2023-02-23T02:18:09.585Z,4.38
2023-02-23T02:21:11.817Z,4.07
2023-02-23T02:23:42.249Z,4.45
2023-02-23T02:26:39.031Z,4.53
2023-02-23T02:29:11.942Z,4.18
2023-02-23T02:32:01.595Z,4.05
2023-02-23T02:35:05.180Z,4.00
2023-02-23T02:38:11.028Z,4.70
2023-02-23T02:41:01.792Z,3.95
2023-02-23T02:43:38.102Z,4.05
2023-02-23T02:46:16.218Z,3.83
2023-02-23T02:49:14.314Z,3.97
2023-02-23T02:51:47.581Z,4.20
2023-02-23T02:54:43.944Z,4.07
2023-02-23T02:57:13.972Z,3.85
2023-02-23T03:00:04.973Z,4.35
2023-02-23T03:02:53.335Z,4.00
2023-02-23T03:05:42.900Z,3.95
2023-02-23T03:08:37.624Z,3.97
2023-02-23T03:11:29.708Z,4.00
2023-02-23T03:14:41.178Z,4.47
2023-02-23T03:17:46.758Z,4.10
2023-02-23T03:20:51.435Z,4.20
2023-02-23T03:26:55.263Z,4.30
2023-02-23T03:29:44.102Z,4.35
2023-02-23T03:32:39.807Z,4.80
2023-02-23T03:35:32.257Z,4.55
2023-02-23T03:38:46.043Z,4.15
2023-02-23T03:41:35.017Z,4.10
2023-02-23T03:44:31.677Z,4.38
2023-02-23T03:47:19.825Z,4.30
2023-02-23T03:50:08.494Z,3.90
2023-02-23T03:53:01.736Z,4.57
2023-02-23T03:55:53.113Z,4.50
2023-02-23T03:58:47.110Z,4.72
2023-02-23T04:01:35.749Z,4.60
2023-02-23T04:04:23.378Z,4.57
2023-02-23T04:07:11.261Z,4.68
2023-02-23T04:09:57.042Z,5.05
2023-02-23T04:12:59.046Z,4.63
2023-02-23T04:15:34.131Z,4.65
2023-02-23T04:18:04.957Z,4.63
2023-02-23T04:20:32.539Z,5.10
2023-02-23T04:23:00.219Z,4.72
2023-02-23T04:25:28.635Z,4.78
2023-02-23T04:27:56.006Z,4.65
2023-02-23T04:30:28.690Z,4.43
2023-02-23T04:32:56.798Z,4.45
2023-02-23T04:35:23.952Z,4.10
2023-02-23T04:37:51.161Z,4.35
2023-02-23T04:40:18.726Z,3.55
2023-02-23T04:42:46.378Z,4.30
2023-02-23T04:45:15.061Z,3.97
2023-02-23T04:47:42.392Z,4.07
2023-02-23T04:50:10.435Z,4.13
2023-02-23T04:52:39.181Z,4.72
2023-02-23T04:55:08.629Z,4.70
2023-02-23T04:57:36.270Z,3.97
2023-02-23T05:00:04.926Z,3.90
2023-02-23T05:02:32.414Z,3.80
2023-02-23T05:04:59.538Z,3.92
2023-02-23T05:07:26.687Z,4.20
2023-02-23T05:09:53.900Z,4.07
2023-02-23T05:12:21.177Z,4.15
2023-02-23T05:14:48.289Z,4.25
2023-02-23T05:17:15.577Z,5.70
2023-02-23T05:19:42.835Z,4.97
2023-02-23T05:22:12.858Z,5.15
2023-02-23T05:24:41.084Z,9.57
2023-02-23T05:27:20.366Z,8.95
2023-02-23T05:29:51.723Z,7.30
2023-02-23T05:32:18.932Z,4.57
2023-02-23T05:35:06.107Z,5.20
2023-02-23T05:40:45.494Z,6.28
2023-02-23T05:43:14.677Z,6.18
2023-02-23T05:45:43.407Z,6.00
2023-02-23T07:56:12.580Z,9.73
2023-02-23T08:25:02.093Z,15.60
2023-02-23T08:27:29.383Z,14.35
2023-02-23T08:29:56.885Z,12.88
2023-02-23T08:32:23.733Z,14.80
2023-02-23T08:34:50.603Z,15.45
2023-02-23T08:37:17.414Z,13.20
2023-02-23T08:39:44.406Z,13.80
2023-02-23T08:42:11.136Z,9.98
2023-02-23T08:44:37.935Z,8.55
2023-02-23T08:47:05.134Z,7.85
2023-02-23T08:49:33.157Z,7.63
2023-02-23T08:51:59.917Z,8.05
2023-02-23T08:54:27.259Z,7.68
2023-02-23T08:56:56.971Z,8.75
2023-02-23T08:59:24.042Z,9.15
2023-02-23T09:01:50.858Z,9.00
2023-02-23T09:04:18.689Z,9.02
2023-02-23T09:06:47.623Z,9.23
2023-02-23T09:09:14.933Z,10.15
2023-02-23T09:24:28.864Z,10.05
2023-02-23T09:27:07.327Z,10.80
2023-02-23T09:29:38.265Z,10.82
2023-02-23T09:32:05.548Z,11.77
2023-02-23T09:34:32.662Z,12.15
2023-02-23T09:37:02.891Z,11.95
2023-02-23T09:39:38.252Z,11.85
2023-02-23T09:42:08.727Z,12.55
2023-02-23T09:45:13.448Z,13.18
2023-02-23T09:47:55.054Z,12.65
2023-02-23T09:50:25.713Z,13.32
2023-02-23T09:53:01.330Z,13.10
2023-02-23T09:55:29.426Z,14.18
2023-02-23T09:58:02.412Z,14.38
2023-02-23T10:00:31.361Z,15.43
2023-02-23T10:03:22.470Z,16.08
2023-02-23T10:05:58.561Z,19.63
2023-02-23T10:08:49.467Z,19.40
2023-02-23T10:11:24.005Z,18.77
2023-02-23T10:14:20.759Z,21.50
2023-02-23T10:17:01.093Z,20.98
2023-02-23T10:20:00.135Z,18.75
2023-02-23T10:22:29.077Z,19.17
2023-02-23T10:25:03.311Z,16.50
2023-02-23T10:27:37.961Z,20.20
2023-02-23T10:30:24.343Z,16.00
2023-02-23T10:32:59.490Z,17.17
2023-02-23T10:35:29.693Z,18.70
2023-02-23T10:37:58.083Z,16.13
2023-02-23T10:40:28.970Z,17.15
2023-02-23T10:42:58.423Z,17.30
2023-02-23T10:45:27.635Z,17.25
2023-02-23T10:48:02.042Z,24.45
2023-02-23T10:50:32.171Z,18.70
2023-02-23T10:53:24.570Z,19.40
2023-02-23T10:56:16.303Z,18.20
2023-02-23T10:58:58.142Z,18.27
2023-02-23T11:02:00.872Z,18.83
2023-02-23T11:04:35.225Z,17.75
2023-02-23T11:07:10.265Z,18.85
2023-02-23T11:09:46.596Z,17.25
2023-02-23T11:12:25.647Z,18.95
2023-02-23T11:14:55.279Z,20.10
2023-02-23T11:17:30.414Z,19.92
2023-02-23T11:20:02.510Z,20.17
2023-02-23T11:22:37.559Z,18.85
2023-02-23T11:25:17.024Z,20.55
2023-02-23T11:27:51.808Z,19.75
2023-02-23T11:30:24.433Z,20.55
2023-02-23T11:32:54.893Z,20.20
2023-02-23T11:35:21.805Z,19.40
2023-02-23T11:37:50.970Z,20.88
2023-02-23T11:40:26.460Z,22.00
2023-02-23T11:43:10.793Z,20.10
2023-02-23T11:45:49.395Z,19.23
2023-02-23T11:48:26.645Z,22.23
2023-02-23T11:50:55.118Z,19.63
2023-02-23T11:53:37.968Z,20.08
2023-02-23T11:56:13.367Z,21.00
2023-02-23T11:58:45.107Z,20.20
2023-02-23T12:01:17.410Z,21.35
2023-02-23T12:03:56.006Z,17.17
2023-02-23T12:06:39.540Z,18.65
2023-02-23T12:09:24.189Z,19.10
2023-02-23T12:12:00.912Z,17.65
2023-02-23T12:14:39.108Z,21.67
2023-02-23T12:17:38.000Z,18.13
2023-02-23T12:20:24.528Z,17.02
2023-02-23T12:22:59.206Z,18.67
2023-02-23T12:25:57.818Z,20.65
2023-02-23T12:29:20.612Z,18.17
2023-02-23T12:31:54.124Z,22.60
2023-02-23T12:34:39.540Z,18.50
2023-02-23T12:37:31.495Z,22.15
2023-02-23T12:40:08.316Z,18.88
2023-02-23T12:43:17.801Z,18.45
2023-02-23T12:45:55.315Z,21.50
2023-02-23T12:48:41.115Z,22.75
2023-02-23T12:51:25.838Z,20.27
2023-02-23T12:53:53.454Z,18.45
2023-02-23T12:56:23.301Z,21.35
2023-02-23T12:59:14.615Z,21.80
2023-02-23T13:01:56.233Z,19.73
2023-02-23T13:04:55.279Z,21.00
2023-02-23T13:08:12.983Z,24.38
2023-02-23T13:11:09.924Z,19.65
2023-02-23T13:14:01.263Z,19.60
2023-02-23T13:16:51.727Z,24.10
2023-02-23T13:19:32.534Z,22.25
2023-02-23T13:22:08.024Z,20.63
2023-02-23T13:25:00.383Z,21.92
2023-02-23T13:27:47.105Z,24.40
2023-02-23T13:30:16.995Z,21.40
2023-02-23T13:33:06.515Z,21.00
2023-02-23T13:35:39.521Z,20.52
2023-02-23T13:38:35.014Z,19.58
2023-02-23T13:41:18.180Z,18.50
2023-02-23T13:44:22.674Z,21.77
2023-02-23T13:46:57.718Z,19.00
2023-02-23T13:49:36.497Z,18.50
2023-02-23T13:52:14.551Z,18.65
2023-02-23T13:54:53.573Z,19.17
2023-02-23T13:57:22.937Z,17.58
2023-02-23T13:59:51.641Z,17.23
2023-02-23T14:02:41.326Z,18.25
2023-02-23T14:05:18.876Z,26.25
2023-02-23T14:07:52.074Z,45.03
2023-02-23T14:10:29.961Z,18.20
2023-02-23T14:13:03.117Z,19.15
2023-02-23T14:15:39.705Z,18.08
2023-02-23T14:18:20.295Z,19.05
2023-02-23T14:20:53.649Z,19.02
2023-02-23T14:24:08.728Z,20.00
2023-02-23T14:26:39.302Z,19.02
2023-02-23T14:29:27.797Z,17.98
2023-02-23T14:32:05.030Z,17.75
2023-02-23T14:34:54.106Z,19.35
2023-02-23T14:37:26.011Z,20.38
2023-02-23T14:40:18.703Z,19.25
2023-02-23T14:42:53.818Z,19.33
2023-02-23T14:45:27.523Z,18.92
2023-02-23T14:48:17.438Z,18.48
2023-02-23T14:50:47.063Z,18.05
2023-02-23T14:53:22.346Z,16.80
2023-02-23T14:55:50.534Z,17.55
2023-02-23T14:58:35.469Z,15.10
2023-02-23T15:01:02.421Z,14.95
2023-02-23T15:03:30.590Z,15.15
2023-02-23T15:06:00.691Z,13.82
2023-02-23T15:08:30.566Z,13.73
2023-02-23T15:11:11.016Z,19.08
2023-02-23T15:13:42.777Z,16.65
2023-02-23T15:16:23.342Z,15.63
2023-02-23T15:19:31.133Z,16.83
2023-02-23T15:22:00.937Z,15.48
2023-02-23T15:24:42.653Z,14.30
2023-02-23T15:27:29.018Z,14.60
2023-02-23T15:29:57.122Z,16.17
2023-02-23T15:32:26.336Z,16.25
2023-02-23T15:34:56.631Z,14.32
2023-02-23T15:37:29.446Z,12.60
2023-02-23T15:40:05.464Z,13.00
2023-02-23T15:42:49.339Z,14.95
2023-02-23T15:45:54.698Z,15.18
2023-02-23T15:48:28.893Z,14.85
2023-02-23T15:50:57.998Z,17.65
2023-02-23T15:53:33.674Z,18.30
2023-02-23T15:56:28.131Z,17.63
2023-02-23T15:59:04.151Z,16.23
2023-02-23T16:01:32.755Z,15.82
2023-02-23T16:04:16.354Z,15.00
2023-02-23T16:06:55.790Z,16.95
2023-02-23T16:09:24.372Z,18.45
2023-02-23T16:12:04.992Z,17.27
2023-02-23T16:14:46.936Z,15.88
2023-02-23T16:17:21.535Z,15.45
2023-02-23T16:19:48.929Z,15.23
2023-02-23T16:22:23.382Z,15.05
2023-02-23T16:25:01.078Z,13.85
2023-02-23T16:27:30.426Z,15.68
2023-02-23T16:30:25.931Z,14.98
2023-02-23T16:33:11.862Z,16.00
2023-02-23T16:35:46.060Z,15.90
2023-02-23T16:38:33.624Z,16.52
2023-02-23T16:41:03.973Z,19.35
2023-02-23T16:43:35.516Z,16.02
2023-02-23T16:46:03.072Z,15.25
2023-02-23T16:48:30.472Z,15.07
2023-02-23T16:51:02.057Z,15.43
2023-02-23T16:53:30.333Z,14.55
2023-02-23T16:56:01.314Z,13.57
2023-02-23T16:58:30.908Z,14.75
2023-02-23T17:00:58.427Z,14.52
2023-02-23T17:03:27.677Z,15.15
2023-02-23T17:05:55.536Z,15.43
2023-02-23T17:08:23.384Z,14.75
2023-02-23T17:10:52.908Z,15.18
2023-02-23T17:13:25.484Z,18.27
2023-02-23T17:15:56.451Z,24.65
2023-02-23T17:18:31.989Z,22.95
2023-02-23T17:21:02.799Z,25.85
2023-02-23T17:23:50.933Z,17.48
2023-02-23T17:26:21.455Z,19.52
2023-02-23T17:28:49.169Z,16.58
2023-02-23T17:31:18.483Z,15.98
2023-02-23T17:33:46.510Z,16.00
2023-02-23T17:36:17.521Z,15.38
2023-02-23T17:38:48.008Z,13.27
2023-02-23T17:41:20.560Z,13.63
2023-02-23T17:43:47.794Z,13.32
2023-02-23T17:46:17.382Z,13.07
2023-02-23T17:48:46.885Z,17.05
2023-02-23T17:51:17.037Z,16.30
2023-02-23T17:53:45.521Z,12.55
2023-02-23T17:56:12.668Z,11.98
2023-02-23T17:58:40.573Z,12.15
2023-02-23T18:01:09.333Z,13.15
2023-02-23T18:03:37.506Z,13.77
2023-02-23T18:06:10.110Z,14.52
2023-02-23T18:08:38.791Z,13.10
2023-02-23T18:11:06.497Z,28.88
2023-02-23T18:13:41.386Z,17.52
2023-02-23T18:16:11.083Z,20.42
2023-02-23T18:18:39.950Z,13.13
2023-02-23T18:21:13.074Z,12.27
2023-02-23T18:23:41.830Z,13.15
2023-02-23T18:26:17.927Z,13.10
2023-02-23T18:28:46.380Z,13.85
2023-02-23T18:31:23.756Z,15.93
2023-02-23T18:33:55.053Z,21.85
2023-02-23T18:36:24.859Z,19.40
2023-02-23T18:38:52.560Z,21.05
2023-02-23T18:41:20.449Z,17.70
2023-02-23T18:43:48.081Z,18.55
2023-02-23T18:46:16.263Z,16.67
2023-02-23T18:48:44.160Z,15.90
2023-02-23T18:51:14.924Z,14.63
2023-02-23T18:53:42.844Z,12.75
2023-02-23T18:56:16.008Z,12.60
2023-02-23T18:58:45.186Z,12.65
2023-02-23T19:01:13.718Z,12.23
2023-02-23T19:03:41.891Z,13.18
2023-02-23T19:06:10.644Z,14.18
2023-02-23T19:08:37.961Z,14.00
2023-02-23T19:11:05.277Z,14.88
2023-02-23T19:13:32.242Z,14.23
2023-02-23T19:16:04.794Z,14.57
2023-02-23T19:18:32.229Z,14.60
2023-02-23T19:20:59.186Z,18.20
2023-02-23T19:23:26.130Z,15.68
2023-02-23T19:25:54.337Z,15.75
2023-02-23T19:28:22.491Z,15.52
2023-02-23T19:30:50.627Z,16.15
2023-02-23T19:33:18.629Z,14.70
2023-02-23T19:35:45.763Z,12.93
2023-02-23T19:38:12.843Z,12.38
2023-02-23T19:40:43.889Z,12.88
2023-02-23T19:43:12.763Z,13.93
2023-02-23T19:45:46.824Z,14.48
2023-02-23T19:48:15.939Z,13.45
2023-02-23T19:50:49.686Z,12.88
2023-02-23T19:55:45.472Z,11.40
2023-02-23T19:58:13.425Z,12.00
2023-02-23T20:00:40.539Z,12.48
2023-02-23T20:03:07.618Z,11.73
2023-02-23T20:05:43.346Z,12.20
2023-02-23T20:08:10.431Z,12.15
2023-02-23T20:10:41.679Z,13.02
2023-02-23T20:13:08.822Z,13.32
2023-02-23T20:15:37.601Z,15.10
2023-02-23T20:18:07.393Z,15.82
2023-02-23T20:20:35.973Z,13.90
2023-02-23T20:23:08.275Z,12.82
2023-02-23T20:25:36.268Z,14.23
2023-02-23T20:28:03.884Z,14.77
2023-02-23T20:30:31.051Z,15.60
2023-02-23T20:33:02.448Z,15.18
2023-02-23T20:35:32.557Z,15.23
2023-02-23T20:38:00.016Z,15.10
2023-02-23T20:40:27.843Z,14.82
2023-02-23T20:42:54.885Z,14.93
2023-02-23T20:45:24.607Z,13.88
2023-02-23T20:47:53.481Z,13.90
2023-02-23T20:50:25.795Z,13.73
2023-02-23T20:52:52.857Z,12.48
2023-02-23T20:55:22.480Z,14.50
2023-02-23T20:57:49.707Z,14.35
2023-02-23T21:00:24.359Z,15.23
2023-02-23T21:02:55.863Z,14.70
2023-02-23T21:05:26.390Z,17.42
2023-02-23T21:07:53.568Z,16.38
2023-02-23T21:10:21.708Z,15.75
2023-02-23T21:12:50.223Z,13.35
2023-02-23T21:15:17.372Z,15.02
2023-02-23T21:17:44.628Z,15.25
2023-02-23T21:20:14.134Z,15.80
2023-02-23T21:22:41.233Z,16.67
2023-02-23T21:25:10.951Z,17.92
2023-02-23T21:27:39.600Z,16.30
2023-02-23T21:30:09.700Z,15.25
2023-02-23T21:32:41.550Z,17.85
2023-02-23T21:35:13.366Z,17.20
2023-02-23T21:37:42.033Z,14.60
2023-02-23T21:40:12.208Z,15.85
2023-02-23T21:42:41.079Z,14.10
2023-02-23T21:45:11.133Z,13.00
2023-02-23T21:47:41.851Z,13.43
2023-02-23T21:50:14.011Z,14.07
2023-02-23T21:52:46.096Z,13.05
2023-02-23T21:55:23.417Z,14.50
2023-02-23T21:57:52.107Z,13.13
2023-02-23T22:00:20.986Z,13.73
2023-02-23T22:02:48.553Z,11.85
2023-02-23T22:05:17.900Z,12.48
2023-02-23T22:07:50.239Z,13.07
2023-02-23T22:10:18.990Z,12.27
2023-02-23T22:12:46.184Z,13.70
2023-02-23T22:15:15.885Z,12.35
2023-02-23T22:17:44.446Z,12.60
2023-02-23T22:20:14.283Z,12.27
2023-02-23T22:22:43.017Z,12.80
2023-02-23T22:25:10.633Z,12.13
2023-02-23T22:27:37.913Z,13.02
2023-02-23T22:30:07.731Z,12.60
2023-02-23T22:32:36.941Z,12.27
2023-02-23T22:35:06.304Z,11.95
2023-02-23T22:37:33.854Z,11.88
2023-02-23T22:40:13.193Z,12.15
2023-02-23T22:42:40.235Z,12.18
2023-02-23T22:45:13.126Z,11.77
2023-02-23T22:47:43.358Z,11.95
2023-02-23T22:50:18.396Z,12.05
2023-02-23T22:55:38.788Z,12.63
2023-02-23T22:58:12.346Z,12.18
2023-02-23T23:00:42.129Z,12.90
2023-02-23T23:03:10.628Z,12.60
2023-02-23T23:05:39.786Z,12.52
2023-02-23T23:08:09.986Z,13.63
2023-02-23T23:10:38.170Z,12.90
2023-02-23T23:13:05.624Z,13.98
2023-02-23T23:15:32.872Z,13.35
2023-02-23T23:17:59.981Z,13.07
2023-02-23T23:20:26.927Z,14.40
2023-02-23T23:22:54.965Z,13.65
2023-02-23T23:25:23.454Z,15.27
2023-02-23T23:27:54.795Z,14.93
2023-02-23T23:30:21.847Z,13.88
2023-02-23T23:32:49.448Z,12.55
2023-02-23T23:35:16.840Z,14.05
2023-02-23T23:37:44.284Z,14.00
2023-02-23T23:40:14.564Z,13.40
2023-02-23T23:42:46.879Z,14.80
2023-02-23T23:45:16.492Z,14.20
2023-02-23T23:47:45.294Z,14.43
2023-02-23T23:50:14.496Z,14.75
2023-02-23T23:52:44.714Z,13.60
2023-02-23T23:55:15.194Z,13.90
2023-02-23T23:57:44.460Z,15.27
